La Salle — WRB6892 — position and weather

sailwx.info

Track history (hours):
 
Tides and Currents Weather Stations Pressure Air Temp Water Temp Dewpoint Dewpoint Depression Visibility Wind Speed Wind Dir Waves Ship Positions

La Salle

Owner: STAR LINE-MACKINAC ISL PASS SER, SAINT IGNACE, MI. More information available from US FCC via Universal Licensing System and Coast Guard Vessel Documentation Center.

Last reported at 2017-Oct-11 22:47 UTC. Time now 2017-Oct-20 17:58 UTC.
Position N 45°52' W 084°44'.
Warning: this ship's position is 8 days out of date.

Length 19 m.

Type: Passenger vessel. MMSI: 367342030.

Date/timePositionNaut miles runAvg speedWind from/ knotsBaromVisibWave heightAir tempDewpointWater temp
2017-Oct-11 22:47N 45°52' W 084°44'511.3
2017-Oct-11 22:21N 45°51' W 084°37'511.4
2017-Oct-11 21:55N 45°52' W 084°44'5 9.5
2017-Oct-11 21:24N 45°51' W 084°37'511.1
2017-Oct-11 20:57N 45°52' W 084°44'510.9
2017-Oct-11 20:30N 45°51' W 084°37'5 9.7
2017-Oct-11 20:00N 45°52' W 084°44'5 8.9
2017-Oct-11 19:27N 45°51' W 084°37'5 8.3
2017-Oct-11 18:51N 45°52' W 084°44'510.0
2017-Oct-11 18:22N 45°51' W 084°37'5 9.5
2017-Oct-11 17:51N 45°52' W 084°44'514.4
2017-Oct-11 17:30N 45°51' W 084°37'5 7.7
2017-Oct-11 16:52N 45°52' W 084°44'0 0.0
2017-Oct-10 22:46N 45°52' W 084°43'414.4
2017-Oct-10 22:28N 45°51' W 084°37'510.1
2017-Oct-10 21:59N 45°52' W 084°44'5 9.8
2017-Oct-10 21:29N 45°51' W 084°37'5 9.8
2017-Oct-10 20:59N 45°52' W 084°44'5 8.1
2017-Oct-10 20:22N 45°51' W 084°37'5 9.4
2017-Oct-10 19:51N 45°52' W 084°44'512.8
2017-Oct-10 19:28N 45°51' W 084°37'510.7
2017-Oct-10 19:00N 45°52' W 084°44'5 7.4
2017-Oct-10 18:20N 45°51' W 084°37'512.0
2017-Oct-10 17:56N 45°52' W 084°44'511.1
2017-Oct-10 17:29N 45°51' W 084°37'5 9.2
2017-Oct-10 16:57N 45°52' W 084°44'511.2
2017-Oct-10 16:30N 45°51' W 084°37'510.2
2017-Oct-10 16:00N 45°52' W 084°44'5 8.3
2017-Oct-10 15:24N 45°51' W 084°37'512.0
2017-Oct-10 15:00N 45°52' W 084°44'0 0.0
2017-Oct-10 13:55N 45°52' W 084°44'5 8.8
2017-Oct-10 13:21N 45°51' W 084°37'513.7
2017-Oct-10 13:00N 45°52' W 084°44'0 0.0
2017-Oct-10 12:20N 45°52' W 084°44'513.1
2017-Oct-10 11:58N 45°51' W 084°37'4 8.8
2017-Oct-10 11:29N 45°52' W 084°43'1 1.2
2017-Oct-10 10:52N 45°52' W 084°44'0 0.0
2017-Oct-09 22:48N 45°52' W 084°43'513.0
2017-Oct-09 22:26N 45°51' W 084°37'510.0
2017-Oct-09 21:57N 45°52' W 084°44'5 9.8
2017-Oct-09 21:27N 45°51' W 084°37'5 9.4
2017-Oct-09 20:55N 45°52' W 084°44'510.2
2017-Oct-09 20:26N 45°51' W 084°37'5 9.4
2017-Oct-09 19:55N 45°52' W 084°44'5 8.0
2017-Oct-09 19:17N 45°51' W 084°37'511.7
2017-Oct-09 18:51N 45°52' W 084°44'511.1
2017-Oct-09 18:24N 45°51' W 084°37'5 9.4
2017-Oct-09 17:53N 45°52' W 084°44'512.2
2017-Oct-09 17:29N 45°51' W 084°37'5 9.5
2017-Oct-09 16:58N 45°52' W 084°44'5 9.2
2017-Oct-09 16:28N 45°50' W 084°38'5 8.0
2017-Oct-09 15:53N 45°52' W 084°44'512.3
2017-Oct-09 15:29N 45°51' W 084°37'5 9.8
2017-Oct-09 14:59N 45°52' W 084°44'4 7.0
2017-Oct-09 14:25N 45°50' W 084°39'4 6.9
2017-Oct-09 13:51N 45°52' W 084°44'5 8.7
2017-Oct-09 13:17N 45°51' W 084°37'2 9.0
2017-Oct-09 13:00N 45°51' W 084°41'2 2.1
2017-Oct-09 12:05N 45°51' W 084°38'1 7.4
2017-Oct-09 12:00N 45°51' W 084°37'5 7.8
2017-Oct-09 11:23N 45°52' W 084°44'0 0.0
2017-Oct-08 22:51N 45°52' W 084°44'510.4
2017-Oct-08 22:23N 45°51' W 084°37'510.7
2017-Oct-08 21:55N 45°52' W 084°44'5 9.2
2017-Oct-08 21:23N 45°51' W 084°37'511.6
2017-Oct-08 20:58N 45°52' W 084°44'5 8.5
2017-Oct-08 20:23N 45°51' W 084°37'512.8
2017-Oct-08 20:00N 45°52' W 084°44'5 8.7
2017-Oct-08 19:26N 45°51' W 084°37'5 8.7
2017-Oct-08 18:52N 45°52' W 084°44'513.4
2017-Oct-08 18:30N 45°51' W 084°37'5 9.4
2017-Oct-08 17:59N 45°52' W 084°44'510.4
2017-Oct-08 17:30N 45°51' W 084°37'5 9.0
2017-Oct-08 16:59N 45°52' W 084°44'5 9.6
2017-Oct-08 16:30N 45°50' W 084°37'5 8.0
2017-Oct-08 15:54N 45°52' W 084°44'511.8
2017-Oct-08 15:29N 45°51' W 084°37'510.2
2017-Oct-08 15:00N 45°52' W 084°44'5 9.9
2017-Oct-08 14:30N 45°51' W 084°37'5 7.8
2017-Oct-08 13:52N 45°52' W 084°44'511.6
2017-Oct-08 13:27N 45°51' W 084°37'5 4.4
2017-Oct-08 12:20N 45°52' W 084°44'5 9.7
2017-Oct-08 11:50N 45°51' W 084°37'5 0.4
2017-Oct-08 00:21N 45°52' W 084°44'510.1
2017-Oct-07 23:52N 45°51' W 084°37'512.6
2017-Oct-07 23:29N 45°52' W 084°44'0 0.0
2017-Oct-07 22:59N 45°52' W 084°44'5 9.5
2017-Oct-07 22:28N 45°51' W 084°37'5 9.5
2017-Oct-07 21:57N 45°52' W 084°44'5 8.7
2017-Oct-07 21:23N 45°51' W 084°37'510.2
2017-Oct-07 20:54N 45°52' W 084°44'5 9.5
2017-Oct-07 20:23N 45°51' W 084°37'512.5
2017-Oct-07 19:59N 45°52' W 084°44'5 8.2
2017-Oct-07 19:23N 45°51' W 084°37'5 8.8
2017-Oct-07 18:50N 45°52' W 084°44'510.7
2017-Oct-07 18:22N 45°51' W 084°37'5 8.4
2017-Oct-07 17:48N 45°52' W 084°44'514.0
2017-Oct-07 17:28N 45°51' W 084°37'4 9.0
2017-Oct-07 16:58N 45°52' W 084°43'3 7.2
2017-Oct-07 16:30N 45°50' W 084°40'4 5.3
2017-Oct-07 15:49N 45°52' W 084°43'514.0
2017-Oct-07 15:29N 45°51' W 084°37'4 8.3
2017-Oct-07 14:58N 45°52' W 084°43'4 7.6
2017-Oct-07 14:30N 45°50' W 084°39'4 6.5
2017-Oct-07 13:52N 45°52' W 084°44'510.7
2017-Oct-07 13:24N 45°51' W 084°37'510.8
2017-Oct-07 12:57N 45°52' W 084°44'0 0.0
2017-Oct-07 12:22N 45°52' W 084°44'5 9.7
2017-Oct-07 11:52N 45°51' W 084°37'411.6
2017-Oct-07 11:30N 45°52' W 084°43'1 0.1
2017-Oct-07 00:23N 45°52' W 084°44'510.3
2017-Oct-06 23:54N 45°51' W 084°37'510.5
2017-Oct-06 23:26N 45°52' W 084°44'0 0.0
2017-Oct-06 22:52N 45°52' W 084°44'510.6
2017-Oct-06 22:24N 45°51' W 084°37'511.8
2017-Oct-06 21:59N 45°52' W 084°44'5 9.2
2017-Oct-06 21:27N 45°51' W 084°37'5 9.4
2017-Oct-06 20:55N 45°52' W 084°44'5 9.2
2017-Oct-06 20:23N 45°51' W 084°37'5 9.5
2017-Oct-06 19:52N 45°52' W 084°44'513.1
2017-Oct-06 19:30N 45°51' W 084°37'5 7.7
2017-Oct-06 18:51N 45°52' W 084°44'512.9
2017-Oct-06 18:29N 45°51' W 084°37'5 8.5
2017-Oct-06 17:54N 45°52' W 084°44'5 9.5
2017-Oct-06 17:23N 45°51' W 084°37'512.8
2017-Oct-06 17:00N 45°52' W 084°44'5 9.6
2017-Oct-06 16:30N 45°51' W 084°37'5 8.7
2017-Oct-06 15:57N 45°52' W 084°44'510.9
2017-Oct-06 15:30N 45°51' W 084°37'5 9.4
2017-Oct-06 14:58N 45°52' W 084°44'4 7.6
2017-Oct-06 14:27N 45°50' W 084°39'4 7.3
2017-Oct-06 13:54N 45°52' W 084°44'510.0
2017-Oct-06 13:25N 45°51' W 084°37'5 8.1
2017-Oct-06 12:48N 45°52' W 084°44'0 0.0
2017-Oct-06 12:28N 45°52' W 084°44'510.3
2017-Oct-06 11:59N 45°51' W 084°37'4 8.5
2017-Oct-06 11:29N 45°52' W 084°43'1 1.3
2017-Oct-06 10:56N 45°52' W 084°44'0 0.0
2017-Oct-05 22:48N 45°52' W 084°44'511.5
2017-Oct-05 22:22N 45°51' W 084°37'511.5
2017-Oct-05 21:57N 45°52' W 084°44'5 9.4
2017-Oct-05 21:25N 45°51' W 084°37'510.7
2017-Oct-05 20:58N 45°52' W 084°44'5 7.5
2017-Oct-05 20:17N 45°51' W 084°37'516.2
2017-Oct-05 19:58N 45°52' W 084°44'5 8.2
2017-Oct-05 19:22N 45°51' W 084°37'5 9.1
2017-Oct-05 18:49N 45°52' W 084°44'511.1
2017-Oct-05 18:23N 45°51' W 084°37'510.4
2017-Oct-05 17:54N 45°52' W 084°44'511.6
2017-Oct-05 17:29N 45°51' W 084°37'510.4
2017-Oct-05 17:00N 45°52' W 084°44'5 3.1
2017-Oct-05 15:24N 45°51' W 084°37'512.0
2017-Oct-05 14:59N 45°52' W 084°44'5 9.5
2017-Oct-05 14:30N 45°50' W 084°38'5 7.9
2017-Oct-05 13:55N 45°52' W 084°44'5 8.8
2017-Oct-05 13:22N 45°51' W 084°37'512.8
2017-Oct-05 12:59N 45°52' W 084°44'1 1.5
2017-Oct-05 12:28N 45°52' W 084°43'4 6.3
2017-Oct-05 11:48N 45°51' W 084°37'5 0.3
2017-Oct-04 18:36N 45°52' W 084°44'215.2
2017-Oct-04 18:29N 45°52' W 084°41'  
Track history (hours):
 
Tides and Currents Weather Stations Pressure Air Temp Water Temp Dewpoint Dewpoint Depression Visibility Wind Speed Wind Dir Waves Ship Positions

La Salle

Owner: STAR LINE-MACKINAC ISL PASS SER, SAINT IGNACE, MI. More information available from US FCC via Universal Licensing System and Coast Guard Vessel Documentation Center.

Last reported at 2017-Oct-11 22:47 UTC. Time now 2017-Oct-20 17:58 UTC.
Position N 45°52' W 084°44'.
Warning: this ship's position is 8 days out of date.

Length 19 m.

Type: Passenger vessel. MMSI: 367342030.

Date/timePositionNaut miles runAvg speedWind from/ knotsBaromVisibWave heightAir tempDewpointWater temp
2017-Oct-11 22:47N 45°52' W 084°44'511.3
2017-Oct-11 22:21N 45°51' W 084°37'511.4
2017-Oct-11 21:55N 45°52' W 084°44'5 9.5
2017-Oct-11 21:24N 45°51' W 084°37'511.1
2017-Oct-11 20:57N 45°52' W 084°44'510.9
2017-Oct-11 20:30N 45°51' W 084°37'5 9.7
2017-Oct-11 20:00N 45°52' W 084°44'5 8.9
2017-Oct-11 19:27N 45°51' W 084°37'5 8.3
2017-Oct-11 18:51N 45°52' W 084°44'510.0
2017-Oct-11 18:22N 45°51' W 084°37'5 9.5
2017-Oct-11 17:51N 45°52' W 084°44'514.4
2017-Oct-11 17:30N 45°51' W 084°37'5 7.7
2017-Oct-11 16:52N 45°52' W 084°44'0 0.0
2017-Oct-10 22:46N 45°52' W 084°43'414.4
2017-Oct-10 22:28N 45°51' W 084°37'510.1
2017-Oct-10 21:59N 45°52' W 084°44'5 9.8
2017-Oct-10 21:29N 45°51' W 084°37'5 9.8
2017-Oct-10 20:59N 45°52' W 084°44'5 8.1
2017-Oct-10 20:22N 45°51' W 084°37'5 9.4
2017-Oct-10 19:51N 45°52' W 084°44'512.8
2017-Oct-10 19:28N 45°51' W 084°37'510.7
2017-Oct-10 19:00N 45°52' W 084°44'5 7.4
2017-Oct-10 18:20N 45°51' W 084°37'512.0
2017-Oct-10 17:56N 45°52' W 084°44'511.1
2017-Oct-10 17:29N 45°51' W 084°37'5 9.2
2017-Oct-10 16:57N 45°52' W 084°44'511.2
2017-Oct-10 16:30N 45°51' W 084°37'510.2
2017-Oct-10 16:00N 45°52' W 084°44'5 8.3
2017-Oct-10 15:24N 45°51' W 084°37'512.0
2017-Oct-10 15:00N 45°52' W 084°44'0 0.0
2017-Oct-10 13:55N 45°52' W 084°44'5 8.8
2017-Oct-10 13:21N 45°51' W 084°37'513.7
2017-Oct-10 13:00N 45°52' W 084°44'0 0.0
2017-Oct-10 12:20N 45°52' W 084°44'513.1
2017-Oct-10 11:58N 45°51' W 084°37'4 8.8
2017-Oct-10 11:29N 45°52' W 084°43'1 1.2
2017-Oct-10 10:52N 45°52' W 084°44'0 0.0
2017-Oct-09 22:48N 45°52' W 084°43'513.0
2017-Oct-09 22:26N 45°51' W 084°37'510.0
2017-Oct-09 21:57N 45°52' W 084°44'5 9.8
2017-Oct-09 21:27N 45°51' W 084°37'5 9.4
2017-Oct-09 20:55N 45°52' W 084°44'510.2
2017-Oct-09 20:26N 45°51' W 084°37'5 9.4
2017-Oct-09 19:55N 45°52' W 084°44'5 8.0
2017-Oct-09 19:17N 45°51' W 084°37'511.7
2017-Oct-09 18:51N 45°52' W 084°44'511.1
2017-Oct-09 18:24N 45°51' W 084°37'5 9.4
2017-Oct-09 17:53N 45°52' W 084°44'512.2
2017-Oct-09 17:29N 45°51' W 084°37'5 9.5
2017-Oct-09 16:58N 45°52' W 084°44'5 9.2
2017-Oct-09 16:28N 45°50' W 084°38'5 8.0
2017-Oct-09 15:53N 45°52' W 084°44'512.3
2017-Oct-09 15:29N 45°51' W 084°37'5 9.8
2017-Oct-09 14:59N 45°52' W 084°44'4 7.0
2017-Oct-09 14:25N 45°50' W 084°39'4 6.9
2017-Oct-09 13:51N 45°52' W 084°44'5 8.7
2017-Oct-09 13:17N 45°51' W 084°37'2 9.0
2017-Oct-09 13:00N 45°51' W 084°41'2 2.1
2017-Oct-09 12:05N 45°51' W 084°38'1 7.4
2017-Oct-09 12:00N 45°51' W 084°37'5 7.8
2017-Oct-09 11:23N 45°52' W 084°44'0 0.0
2017-Oct-08 22:51N 45°52' W 084°44'510.4
2017-Oct-08 22:23N 45°51' W 084°37'510.7
2017-Oct-08 21:55N 45°52' W 084°44'5 9.2
2017-Oct-08 21:23N 45°51' W 084°37'511.6
2017-Oct-08 20:58N 45°52' W 084°44'5 8.5
2017-Oct-08 20:23N 45°51' W 084°37'512.8
2017-Oct-08 20:00N 45°52' W 084°44'5 8.7
2017-Oct-08 19:26N 45°51' W 084°37'5 8.7
2017-Oct-08 18:52N 45°52' W 084°44'513.4
2017-Oct-08 18:30N 45°51' W 084°37'5 9.4
2017-Oct-08 17:59N 45°52' W 084°44'510.4
2017-Oct-08 17:30N 45°51' W 084°37'5 9.0
2017-Oct-08 16:59N 45°52' W 084°44'5 9.6
2017-Oct-08 16:30N 45°50' W 084°37'5 8.0
2017-Oct-08 15:54N 45°52' W 084°44'511.8
2017-Oct-08 15:29N 45°51' W 084°37'510.2
2017-Oct-08 15:00N 45°52' W 084°44'5 9.9
2017-Oct-08 14:30N 45°51' W 084°37'5 7.8
2017-Oct-08 13:52N 45°52' W 084°44'511.6
2017-Oct-08 13:27N 45°51' W 084°37'5 4.4
2017-Oct-08 12:20N 45°52' W 084°44'5 9.7
2017-Oct-08 11:50N 45°51' W 084°37'5 0.4
2017-Oct-08 00:21N 45°52' W 084°44'510.1
2017-Oct-07 23:52N 45°51' W 084°37'512.6
2017-Oct-07 23:29N 45°52' W 084°44'0 0.0
2017-Oct-07 22:59N 45°52' W 084°44'5 9.5
2017-Oct-07 22:28N 45°51' W 084°37'5 9.5
2017-Oct-07 21:57N 45°52' W 084°44'5 8.7
2017-Oct-07 21:23N 45°51' W 084°37'510.2
2017-Oct-07 20:54N 45°52' W 084°44'5 9.5
2017-Oct-07 20:23N 45°51' W 084°37'512.5
2017-Oct-07 19:59N 45°52' W 084°44'5 8.2
2017-Oct-07 19:23N 45°51' W 084°37'5 8.8
2017-Oct-07 18:50N 45°52' W 084°44'510.7
2017-Oct-07 18:22N 45°51' W 084°37'5 8.4
2017-Oct-07 17:48N 45°52' W 084°44'514.0
2017-Oct-07 17:28N 45°51' W 084°37'4 9.0
2017-Oct-07 16:58N 45°52' W 084°43'3 7.2
2017-Oct-07 16:30N 45°50' W 084°40'4 5.3
2017-Oct-07 15:49N 45°52' W 084°43'514.0
2017-Oct-07 15:29N 45°51' W 084°37'4 8.3
2017-Oct-07 14:58N 45°52' W 084°43'4 7.6
2017-Oct-07 14:30N 45°50' W 084°39'4 6.5
2017-Oct-07 13:52N 45°52' W 084°44'510.7
2017-Oct-07 13:24N 45°51' W 084°37'510.8
2017-Oct-07 12:57N 45°52' W 084°44'0 0.0
2017-Oct-07 12:22N 45°52' W 084°44'5 9.7
2017-Oct-07 11:52N 45°51' W 084°37'411.6
2017-Oct-07 11:30N 45°52' W 084°43'1 0.1
2017-Oct-07 00:23N 45°52' W 084°44'510.3
2017-Oct-06 23:54N 45°51' W 084°37'510.5
2017-Oct-06 23:26N 45°52' W 084°44'0 0.0
2017-Oct-06 22:52N 45°52' W 084°44'510.6
2017-Oct-06 22:24N 45°51' W 084°37'511.8
2017-Oct-06 21:59N 45°52' W 084°44'5 9.2
2017-Oct-06 21:27N 45°51' W 084°37'5 9.4
2017-Oct-06 20:55N 45°52' W 084°44'5 9.2
2017-Oct-06 20:23N 45°51' W 084°37'5 9.5
2017-Oct-06 19:52N 45°52' W 084°44'513.1
2017-Oct-06 19:30N 45°51' W 084°37'5 7.7
2017-Oct-06 18:51N 45°52' W 084°44'512.9
2017-Oct-06 18:29N 45°51' W 084°37'5 8.5
2017-Oct-06 17:54N 45°52' W 084°44'5 9.5
2017-Oct-06 17:23N 45°51' W 084°37'512.8
2017-Oct-06 17:00N 45°52' W 084°44'5 9.6
2017-Oct-06 16:30N 45°51' W 084°37'5 8.7
2017-Oct-06 15:57N 45°52' W 084°44'510.9
2017-Oct-06 15:30N 45°51' W 084°37'5 9.4
2017-Oct-06 14:58N 45°52' W 084°44'4 7.6
2017-Oct-06 14:27N 45°50' W 084°39'4 7.3
2017-Oct-06 13:54N 45°52' W 084°44'510.0
2017-Oct-06 13:25N 45°51' W 084°37'5 8.1
2017-Oct-06 12:48N 45°52' W 084°44'0 0.0
2017-Oct-06 12:28N 45°52' W 084°44'510.3
2017-Oct-06 11:59N 45°51' W 084°37'4 8.5
2017-Oct-06 11:29N 45°52' W 084°43'1 1.3
2017-Oct-06 10:56N 45°52' W 084°44'0 0.0
2017-Oct-05 22:48N 45°52' W 084°44'511.5
2017-Oct-05 22:22N 45°51' W 084°37'511.5
2017-Oct-05 21:57N 45°52' W 084°44'5 9.4
2017-Oct-05 21:25N 45°51' W 084°37'510.7
2017-Oct-05 20:58N 45°52' W 084°44'5 7.5
2017-Oct-05 20:17N 45°51' W 084°37'516.2
2017-Oct-05 19:58N 45°52' W 084°44'5 8.2
2017-Oct-05 19:22N 45°51' W 084°37'5 9.1
2017-Oct-05 18:49N 45°52' W 084°44'511.1
2017-Oct-05 18:23N 45°51' W 084°37'510.4
2017-Oct-05 17:54N 45°52' W 084°44'511.6
2017-Oct-05 17:29N 45°51' W 084°37'510.4
2017-Oct-05 17:00N 45°52' W 084°44'5 3.1
2017-Oct-05 15:24N 45°51' W 084°37'512.0
2017-Oct-05 14:59N 45°52' W 084°44'5 9.5
2017-Oct-05 14:30N 45°50' W 084°38'5 7.9
2017-Oct-05 13:55N 45°52' W 084°44'5 8.8
2017-Oct-05 13:22N 45°51' W 084°37'512.8
2017-Oct-05 12:59N 45°52' W 084°44'1 1.5
2017-Oct-05 12:28N 45°52' W 084°43'4 6.3
2017-Oct-05 11:48N 45°51' W 084°37'5 0.3
2017-Oct-04 18:36N 45°52' W 084°44'215.2
2017-Oct-04 18:29N 45°52' W 084°41'  

Dump ship's entire track history